createdAt,value
2018-03-24T00:01:09.473Z,95.10
2018-03-24T00:03:38.004Z,96.00
2018-03-24T00:06:07.216Z,96.70
2018-03-24T00:08:36.507Z,96.60
2018-03-24T00:11:05.665Z,96.70
2018-03-24T00:13:34.289Z,96.50
2018-03-24T00:16:16.540Z,96.50
2018-03-24T00:18:45.544Z,97.00
2018-03-24T00:21:16.157Z,97.70
2018-03-24T00:23:47.964Z,97.60
2018-03-24T00:26:16.197Z,95.90
2018-03-24T00:28:44.352Z,95.90
2018-03-24T00:31:12.535Z,97.00
2018-03-24T00:33:44.668Z,97.10
2018-03-24T00:36:12.826Z,97.90
2018-03-24T00:38:41.222Z,98.40
2018-03-24T00:41:12.235Z,98.40
2018-03-24T00:43:40.877Z,98.80
2018-03-24T00:46:09.949Z,98.70
2018-03-24T00:48:38.165Z,98.80
2018-03-24T00:51:08.285Z,99.00
2018-03-24T00:53:38.813Z,99.00
2018-03-24T00:56:07.763Z,99.30
2018-03-24T00:58:38.938Z,99.30
2018-03-24T01:01:07.122Z,99.40
2018-03-24T01:03:36.260Z,98.80
2018-03-24T01:06:05.218Z,98.80
2018-03-24T01:08:34.177Z,98.00
2018-03-24T01:11:03.145Z,98.00
2018-03-24T01:13:32.393Z,97.90
2018-03-24T01:16:01.454Z,97.60
2018-03-24T01:18:31.132Z,97.20
2018-03-24T01:20:59.988Z,97.10
2018-03-24T01:23:28.293Z,97.80
2018-03-24T01:26:01.575Z,97.40
2018-03-24T01:28:30.277Z,96.80
2018-03-24T01:31:01.857Z,97.30
2018-03-24T01:33:30.997Z,97.70
2018-03-24T01:35:59.732Z,96.90
2018-03-24T01:38:29.146Z,96.60
2018-03-24T01:40:57.304Z,96.50
2018-03-24T01:43:26.284Z,97.10
2018-03-24T01:45:54.434Z,97.20
2018-03-24T01:48:23.371Z,97.20
2018-03-24T01:50:52.648Z,97.20
2018-03-24T01:53:21.032Z,96.90
2018-03-24T01:55:49.206Z,96.50
2018-03-24T01:58:18.196Z,96.50
2018-03-24T02:00:47.100Z,95.50
2018-03-24T02:03:15.274Z,95.30
2018-03-24T02:05:44.726Z,96.00
2018-03-24T02:08:12.909Z,96.90
2018-03-24T02:10:41.106Z,97.10
2018-03-24T02:13:16.796Z,96.40
2018-03-24T02:15:45.208Z,96.40
2018-03-24T02:18:16.916Z,96.60
2018-03-24T02:20:45.060Z,97.00
2018-03-24T02:23:14.419Z,96.50
2018-03-24T02:25:42.602Z,96.40
2018-03-24T02:28:10.783Z,96.00
2018-03-24T02:30:38.984Z,95.80
2018-03-24T02:33:07.293Z,95.60
2018-03-24T02:35:35.459Z,96.00
2018-03-24T02:38:04.536Z,95.90
2018-03-24T02:40:32.723Z,94.60
2018-03-24T02:43:02.057Z,94.70
2018-03-24T02:45:31.908Z,95.30
2018-03-24T02:48:00.077Z,95.80
2018-03-24T02:50:28.264Z,96.60
2018-03-24T02:52:58.033Z,96.90
2018-03-24T02:55:26.325Z,96.70
2018-03-24T02:57:55.566Z,96.90
2018-03-24T03:00:25.001Z,97.00
2018-03-24T03:02:59.374Z,96.90
2018-03-24T03:05:28.370Z,97.30
2018-03-24T03:07:56.518Z,97.30
2018-03-24T03:10:25.797Z,97.70
2018-03-24T03:12:56.336Z,97.60
2018-03-24T03:15:24.522Z,97.10
2018-03-24T03:17:53.073Z,97.40
2018-03-24T03:20:21.250Z,97.50
2018-03-24T03:22:49.439Z,97.40
2018-03-24T03:25:18.489Z,97.20
2018-03-24T03:27:46.649Z,97.10
2018-03-24T03:30:32.345Z,96.70
2018-03-24T03:33:06.391Z,97.10
2018-03-24T03:35:35.290Z,97.50
2018-03-24T03:38:07.708Z,97.50
2018-03-24T03:40:35.868Z,98.00
2018-03-24T03:43:06.936Z,97.70
2018-03-24T03:45:35.277Z,97.40
2018-03-24T03:48:03.480Z,96.80
2018-03-24T03:50:33.083Z,97.10
2018-03-24T03:53:02.097Z,98.00
2018-03-24T03:55:33.163Z,98.00
2018-03-24T03:58:02.705Z,97.90
2018-03-24T04:00:31.870Z,98.00
2018-03-24T04:03:02.310Z,97.30
2018-03-24T04:05:31.168Z,97.50
2018-03-24T04:08:03.769Z,97.30
2018-03-24T04:10:31.976Z,96.70
2018-03-24T04:13:01.205Z,96.50
2018-03-24T04:15:29.980Z,97.20
2018-03-24T04:17:58.975Z,96.60
2018-03-24T04:20:28.115Z,97.20
2018-03-24T04:23:06.060Z,97.10
2018-03-24T04:25:40.817Z,96.30
2018-03-24T04:28:08.991Z,96.30
2018-03-24T04:30:37.934Z,96.10
2018-03-24T04:33:06.917Z,96.70
2018-03-24T04:35:35.081Z,96.70
2018-03-24T04:38:04.996Z,96.50
2018-03-24T04:40:33.823Z,96.80
2018-03-24T04:43:02.047Z,97.40
2018-03-24T04:45:31.701Z,97.80
2018-03-24T04:47:59.891Z,97.40
2018-03-24T04:50:28.907Z,96.30
2018-03-24T04:52:58.468Z,96.30
2018-03-24T04:55:26.642Z,96.50
2018-03-24T04:57:55.235Z,96.70
2018-03-24T05:00:24.356Z,97.00
2018-03-24T05:02:57.291Z,96.10
2018-03-24T05:05:26.308Z,96.10
2018-03-24T05:07:58.949Z,96.30
2018-03-24T05:10:28.000Z,96.70
2018-03-24T05:12:56.313Z,96.90
2018-03-24T05:15:25.191Z,97.60
2018-03-24T05:17:54.121Z,97.10
2018-03-24T05:20:23.094Z,96.80
2018-03-24T05:22:52.912Z,96.80
2018-03-24T05:25:21.089Z,96.00
2018-03-24T05:27:49.264Z,96.20
2018-03-24T05:30:19.222Z,96.40
2018-03-24T05:32:47.460Z,96.40
2018-03-24T05:35:15.619Z,96.20
2018-03-24T05:37:44.068Z,96.10
2018-03-24T05:40:12.260Z,96.60
2018-03-24T05:42:40.556Z,96.70
2018-03-24T05:45:10.000Z,95.60
2018-03-24T05:47:38.165Z,96.10
2018-03-24T05:50:06.349Z,95.90
2018-03-24T05:52:38.483Z,96.10
2018-03-24T05:55:06.751Z,95.80
2018-03-24T05:57:35.733Z,94.90
2018-03-24T06:00:03.964Z,94.80
2018-03-24T06:02:32.125Z,95.40
2018-03-24T06:05:01.314Z,94.90
2018-03-24T06:07:29.476Z,95.30
2018-03-24T06:09:57.671Z,94.90
2018-03-24T06:12:27.542Z,94.50
2018-03-24T06:14:55.708Z,93.50
2018-03-24T06:17:23.890Z,93.40
2018-03-24T06:19:53.296Z,93.40
2018-03-24T06:22:21.547Z,94.00
2018-03-24T06:24:49.732Z,94.60
2018-03-24T06:27:17.975Z,95.40
2018-03-24T06:29:46.150Z,95.20
2018-03-24T06:32:14.951Z,94.00
2018-03-24T06:34:45.113Z,94.70
2018-03-24T06:37:18.341Z,94.70
2018-03-24T06:39:47.525Z,95.10
2018-03-24T06:42:16.399Z,94.40
2018-03-24T06:44:44.658Z,94.90
2018-03-24T06:47:14.079Z,94.30
2018-03-24T06:49:42.243Z,94.40
2018-03-24T06:52:14.015Z,93.20
2018-03-24T06:54:42.223Z,93.50
2018-03-24T06:57:10.755Z,93.10
2018-03-24T06:59:40.389Z,94.00
2018-03-24T07:02:19.480Z,94.30
2018-03-24T07:04:47.646Z,94.40
2018-03-24T07:07:15.926Z,94.20
2018-03-24T07:09:45.978Z,94.40
2018-03-24T07:12:14.172Z,94.60
2018-03-24T07:14:42.788Z,94.70
2018-03-24T07:17:12.084Z,94.40
2018-03-24T07:19:40.239Z,94.30
2018-03-24T07:25:10.749Z,94.50
2018-03-24T07:27:40.416Z,94.50
2018-03-24T07:30:08.569Z,94.90
2018-03-24T07:32:44.306Z,94.20
2018-03-24T07:35:13.197Z,94.60
2018-03-24T07:37:45.522Z,94.50
2018-03-24T07:40:13.681Z,94.90
2018-03-24T07:42:48.283Z,94.90
2018-03-24T07:45:17.423Z,94.90
2018-03-24T07:47:47.433Z,94.10
2018-03-24T07:50:16.476Z,93.80
2018-03-24T07:52:45.728Z,93.80
2018-03-24T07:55:15.114Z,93.90
2018-03-24T07:57:44.272Z,92.60
2018-03-24T08:00:13.124Z,92.60
2018-03-24T08:02:42.233Z,91.60
2018-03-24T08:05:10.423Z,90.80
2018-03-24T08:07:38.593Z,90.90
2018-03-24T08:10:06.988Z,89.60
2018-03-24T08:12:35.264Z,87.80
2018-03-24T08:15:03.712Z,84.10
2018-03-24T08:17:31.905Z,80.90
2018-03-24T08:20:00.129Z,82.80
2018-03-24T08:22:28.374Z,79.20
2018-03-24T08:24:57.883Z,75.80
2018-03-24T08:27:26.042Z,78.90
2018-03-24T08:29:54.805Z,76.60
2018-03-24T08:32:23.459Z,69.50
2018-03-24T08:34:52.072Z,68.80
2018-03-24T08:37:20.929Z,65.30
2018-03-24T08:39:49.079Z,67.20
2018-03-24T08:42:17.245Z,64.90
2018-03-24T08:44:45.434Z,58.30
2018-03-24T08:47:14.394Z,57.70
2018-03-24T08:49:42.568Z,55.00
2018-03-24T08:52:19.761Z,54.20
2018-03-24T08:54:48.012Z,52.80
2018-03-24T08:57:16.188Z,50.70
2018-03-24T08:59:44.365Z,49.90
2018-03-24T09:02:13.005Z,48.00
2018-03-24T09:04:41.155Z,50.00
2018-03-24T09:07:09.340Z,46.00
2018-03-24T09:09:37.510Z,44.60
2018-03-24T09:12:05.736Z,45.60
2018-03-24T09:14:33.916Z,45.40
2018-03-24T09:17:02.073Z,40.60
2018-03-24T09:19:30.263Z,40.50
2018-03-24T09:21:58.421Z,37.40
2018-03-24T09:24:26.630Z,37.20
2018-03-24T09:26:55.572Z,36.50
2018-03-24T09:29:23.724Z,36.50
2018-03-24T09:31:52.576Z,37.40
2018-03-24T09:34:20.762Z,38.40
2018-03-24T09:36:48.936Z,36.90
2018-03-24T09:39:17.103Z,35.60
2018-03-24T09:41:45.296Z,33.30
2018-03-24T09:44:13.462Z,32.90
2018-03-24T09:46:41.630Z,29.90
2018-03-24T09:49:09.816Z,29.70
2018-03-24T09:51:38.003Z,27.40
2018-03-24T09:54:06.189Z,29.00
2018-03-24T09:56:34.355Z,29.10
2018-03-24T09:59:03.151Z,27.60
2018-03-24T10:01:31.539Z,30.00
2018-03-24T10:03:59.708Z,27.70
2018-03-24T10:06:27.872Z,29.00
2018-03-24T10:08:56.075Z,27.30
2018-03-24T10:11:24.248Z,25.70
2018-03-24T10:13:53.292Z,25.30
2018-03-24T10:16:21.449Z,25.30
2018-03-24T10:18:49.625Z,25.10
2018-03-24T10:24:29.934Z,24.30
2018-03-24T10:26:58.110Z,24.40
2018-03-24T10:29:27.015Z,24.00
2018-03-24T10:31:55.182Z,23.70
2018-03-24T10:34:23.366Z,22.90
2018-03-24T10:36:51.581Z,23.20
2018-03-24T10:39:19.713Z,23.70
2018-03-24T10:41:47.933Z,24.10
2018-03-24T10:44:16.114Z,23.30
2018-03-24T10:46:44.289Z,23.40
2018-03-24T10:49:12.446Z,24.10
2018-03-24T10:51:41.357Z,22.30
2018-03-24T10:54:09.533Z,22.20
2018-03-24T10:56:37.698Z,22.60
2018-03-24T10:59:05.869Z,23.50
2018-03-24T11:01:34.022Z,21.00
2018-03-24T11:04:02.961Z,20.50
2018-03-24T11:06:31.149Z,20.50
2018-03-24T11:08:59.331Z,21.90
2018-03-24T11:11:27.482Z,21.50
2018-03-24T11:13:55.749Z,20.50
2018-03-24T11:16:23.894Z,20.80
2018-03-24T11:18:52.818Z,20.20
2018-03-24T11:21:20.975Z,20.20
2018-03-24T11:23:49.238Z,20.20
2018-03-24T11:26:17.412Z,20.10
2018-03-24T11:28:45.551Z,21.70
2018-03-24T11:31:13.717Z,20.80
2018-03-24T11:33:41.940Z,21.10
2018-03-24T11:36:10.134Z,21.70
2018-03-24T11:38:38.313Z,20.30
2018-03-24T11:41:06.723Z,20.40
2018-03-24T11:43:34.884Z,19.60
2018-03-24T11:46:03.036Z,21.20
2018-03-24T11:48:31.246Z,20.50
2018-03-24T11:50:59.395Z,20.70
2018-03-24T11:53:39.959Z,21.00
2018-03-24T11:56:08.152Z,20.50
2018-03-24T11:58:36.306Z,18.90
2018-03-24T12:01:04.471Z,19.90
2018-03-24T12:03:35.995Z,19.20
2018-03-24T12:06:04.374Z,20.90
2018-03-24T12:11:09.030Z,18.40
2018-03-24T12:18:49.080Z,18.70
2018-03-24T12:21:17.262Z,20.30
2018-03-24T12:23:45.595Z,18.10
2018-03-24T12:26:13.749Z,18.70
2018-03-24T12:28:41.921Z,19.50
2018-03-24T12:31:10.214Z,20.80
2018-03-24T12:33:40.201Z,20.10
2018-03-24T12:36:09.466Z,19.30
2018-03-24T12:38:37.795Z,19.20
2018-03-24T12:41:06.215Z,18.80
2018-03-24T12:43:34.533Z,19.60
2018-03-24T12:46:03.558Z,19.40
2018-03-24T12:48:31.740Z,18.60
2018-03-24T12:50:59.929Z,19.50
2018-03-24T12:53:29.100Z,18.10
2018-03-24T12:55:58.211Z,19.80
2018-03-24T12:58:27.240Z,20.10
2018-03-24T13:00:56.224Z,18.20
2018-03-24T13:03:28.188Z,18.20
2018-03-24T13:05:56.417Z,18.80
2018-03-24T13:08:24.639Z,19.60
2018-03-24T13:10:52.816Z,19.00
2018-03-24T13:13:20.994Z,18.10
2018-03-24T13:15:50.051Z,18.50
2018-03-24T13:18:18.221Z,18.40
2018-03-24T13:20:46.386Z,19.20
2018-03-24T13:23:17.732Z,18.00
2018-03-24T13:25:45.907Z,18.60
2018-03-24T13:28:23.446Z,18.80
2018-03-24T13:39:42.384Z,18.40
2018-03-24T13:47:49.290Z,17.20
2018-03-24T13:50:22.261Z,17.20
2018-03-24T13:55:25.586Z,17.10
2018-03-24T13:57:55.519Z,15.00
2018-03-24T14:00:29.397Z,14.40
2018-03-24T14:06:05.345Z,11.50
2018-03-24T14:08:41.414Z,11.30
2018-03-24T14:16:55.691Z,10.00
2018-03-24T14:43:02.769Z,8.70
2018-03-24T14:45:31.839Z,8.40
2018-03-24T15:00:06.456Z,7.30
2018-03-24T15:02:36.639Z,8.30
2018-03-24T15:39:40.102Z,6.70
2018-03-24T15:42:09.286Z,7.60
2018-03-24T15:44:37.435Z,7.70
2018-03-24T15:47:05.647Z,7.50
2018-03-24T15:49:33.989Z,8.10
2018-03-24T15:55:02.596Z,11.50
2018-03-24T15:57:37.304Z,12.90
2018-03-24T16:00:06.180Z,14.30
2018-03-24T16:02:38.095Z,14.50
2018-03-24T16:05:06.353Z,15.30
2018-03-24T16:07:34.641Z,15.40
2018-03-24T16:10:03.819Z,16.00
2018-03-24T16:12:40.144Z,16.00
2018-03-24T16:17:42.615Z,17.70
2018-03-24T16:20:11.604Z,17.40
2018-03-24T16:22:46.920Z,17.80
2018-03-24T16:25:15.127Z,18.10
2018-03-24T16:27:44.972Z,18.10
2018-03-24T16:30:13.175Z,18.80
2018-03-24T16:32:41.344Z,18.80
2018-03-24T16:35:10.865Z,19.60
2018-03-24T16:37:39.269Z,19.60
2018-03-24T16:40:07.440Z,19.40
2018-03-24T16:42:36.630Z,20.00
2018-03-24T16:45:04.792Z,19.40
2018-03-24T16:47:32.963Z,20.40
2018-03-24T16:50:01.150Z,20.40
2018-03-24T16:52:29.434Z,20.20
2018-03-24T16:54:58.571Z,20.60
2018-03-24T16:57:26.774Z,20.20
2018-03-24T16:59:54.961Z,20.20
2018-03-24T17:02:27.774Z,20.10
2018-03-24T17:04:55.943Z,20.80
2018-03-24T17:07:24.222Z,21.70
2018-03-24T17:09:52.394Z,21.90
2018-03-24T17:12:23.819Z,21.70
2018-03-24T17:14:52.074Z,21.60
2018-03-24T17:17:21.556Z,22.10
2018-03-24T17:19:49.711Z,21.40
2018-03-24T17:22:17.928Z,21.80
2018-03-24T17:24:46.100Z,21.80
2018-03-24T17:27:14.263Z,22.40
2018-03-24T17:29:42.425Z,22.10
2018-03-24T17:32:14.565Z,22.80
2018-03-24T17:34:42.724Z,22.80
2018-03-24T17:37:11.921Z,22.50
2018-03-24T17:39:40.154Z,22.70
2018-03-24T17:42:08.469Z,23.50
2018-03-24T17:44:36.673Z,23.80
2018-03-24T17:47:05.387Z,24.20
2018-03-24T17:49:33.760Z,24.60
2018-03-24T17:52:02.986Z,24.50
2018-03-24T17:54:31.172Z,25.00
2018-03-24T17:56:59.347Z,25.60
2018-03-24T17:59:27.506Z,26.60
2018-03-24T18:01:55.682Z,26.30
2018-03-24T18:04:23.996Z,27.20
2018-03-24T18:06:52.965Z,28.10
2018-03-24T18:09:21.137Z,28.10
2018-03-24T18:11:50.011Z,28.90
2018-03-24T18:14:18.190Z,27.80
2018-03-24T18:16:46.378Z,29.40
2018-03-24T18:19:14.562Z,29.10
2018-03-24T18:21:43.511Z,30.30
2018-03-24T18:24:12.440Z,31.80
2018-03-24T18:26:40.850Z,31.70
2018-03-24T18:29:10.093Z,33.00
2018-03-24T18:31:38.305Z,32.90
2018-03-24T18:37:13.115Z,34.70
2018-03-24T18:39:41.311Z,34.00
2018-03-24T18:42:10.497Z,34.50
2018-03-24T18:44:38.669Z,36.00
2018-03-24T18:47:06.843Z,37.00
2018-03-24T18:49:35.074Z,37.00
2018-03-24T18:52:16.866Z,38.10
2018-03-24T18:54:50.792Z,38.40
2018-03-24T18:57:19.762Z,41.20
2018-03-24T18:59:50.004Z,40.50
2018-03-24T19:02:19.479Z,41.30
2018-03-24T19:04:47.678Z,43.50
2018-03-24T19:07:15.877Z,44.30
2018-03-24T19:09:44.832Z,46.60
2018-03-24T19:12:16.253Z,46.60
2018-03-24T19:14:44.542Z,48.30
2018-03-24T19:17:12.713Z,49.50
2018-03-24T19:19:40.885Z,50.70
2018-03-24T19:22:14.952Z,51.70
2018-03-24T19:24:43.990Z,50.60
2018-03-24T19:27:12.172Z,50.60
2018-03-24T19:29:40.442Z,48.70
2018-03-24T19:32:12.114Z,49.50
2018-03-24T19:34:40.394Z,49.30
2018-03-24T19:37:08.561Z,51.50
2018-03-24T19:39:36.752Z,52.00
2018-03-24T19:42:05.023Z,53.40
2018-03-24T19:44:33.191Z,54.50
2018-03-24T19:47:01.343Z,53.20
2018-03-24T19:49:29.516Z,54.80
2018-03-24T19:51:57.693Z,55.00
2018-03-24T19:54:25.863Z,53.80
2018-03-24T19:56:54.820Z,54.30
2018-03-24T19:59:23.877Z,55.40
2018-03-24T20:01:52.042Z,54.80
2018-03-24T20:04:20.906Z,56.30
2018-03-24T20:06:49.071Z,58.30
2018-03-24T20:09:17.219Z,58.70
2018-03-24T20:11:45.441Z,57.00
2018-03-24T20:14:13.624Z,57.50
2018-03-24T20:16:41.798Z,56.70
2018-03-24T20:19:09.996Z,57.20
2018-03-24T20:21:38.175Z,55.20
2018-03-24T20:24:06.354Z,56.20
2018-03-24T20:26:35.216Z,57.00
2018-03-24T20:29:03.385Z,57.50
2018-03-24T20:31:31.546Z,58.50
2018-03-24T20:34:00.215Z,60.10
2018-03-24T20:36:28.386Z,61.30
2018-03-24T20:38:56.551Z,60.50
2018-03-24T20:41:24.988Z,62.40
2018-03-24T20:43:55.211Z,63.60
2018-03-24T20:46:23.363Z,64.30
2018-03-24T20:48:52.327Z,62.70
2018-03-24T20:51:20.501Z,62.70
2018-03-24T20:53:48.673Z,62.80
2018-03-24T20:56:16.841Z,63.10
2018-03-24T20:58:45.763Z,65.20
2018-03-24T21:01:13.954Z,65.10
2018-03-24T21:03:43.254Z,63.90
2018-03-24T21:06:11.393Z,65.50
2018-03-24T21:08:39.587Z,65.20
2018-03-24T21:11:07.821Z,67.50
2018-03-24T21:13:36.832Z,71.80
2018-03-24T21:16:05.012Z,71.90
2018-03-24T21:18:34.202Z,71.60
2018-03-24T21:21:03.136Z,69.70
2018-03-24T21:23:31.430Z,67.50
2018-03-24T21:25:59.605Z,67.80
2018-03-24T21:28:27.759Z,70.00
2018-03-24T21:30:55.974Z,71.50
2018-03-24T21:33:24.535Z,71.50
2018-03-24T21:35:52.718Z,70.80
2018-03-24T21:38:20.922Z,70.00
2018-03-24T21:40:51.226Z,70.00
2018-03-24T21:43:19.447Z,70.20
2018-03-24T21:45:47.614Z,71.40
2018-03-24T21:48:15.879Z,71.00
2018-03-24T21:50:44.195Z,69.50
2018-03-24T21:53:12.380Z,68.90
2018-03-24T21:55:40.563Z,70.50
2018-03-24T21:58:08.729Z,73.80
2018-03-24T22:00:36.899Z,74.80
2018-03-24T22:03:05.098Z,76.00
2018-03-24T22:05:33.263Z,74.70
2018-03-24T22:08:06.288Z,73.20
2018-03-24T22:10:34.448Z,74.10
2018-03-24T22:13:03.516Z,72.60
2018-03-24T22:15:31.725Z,72.50
2018-03-24T22:18:00.196Z,73.40
2018-03-24T22:20:28.898Z,73.50
2018-03-24T22:22:57.178Z,74.20
2018-03-24T22:25:25.352Z,74.60
2018-03-24T22:27:54.384Z,75.80
2018-03-24T22:30:22.541Z,75.80
2018-03-24T22:32:51.534Z,74.70
2018-03-24T22:35:19.711Z,74.70
2018-03-24T22:37:47.974Z,72.10
2018-03-24T22:40:16.141Z,73.20
2018-03-24T22:42:47.895Z,74.00
2018-03-24T22:45:16.145Z,74.70
2018-03-24T22:47:46.658Z,75.80
2018-03-24T22:50:15.462Z,75.50
2018-03-24T22:52:43.676Z,75.60
2018-03-24T22:55:11.839Z,77.90
2018-03-24T22:57:41.431Z,78.50
2018-03-24T23:00:10.365Z,79.20
2018-03-24T23:02:38.640Z,79.90
2018-03-24T23:05:06.820Z,78.80
2018-03-24T23:07:34.997Z,79.90
2018-03-24T23:10:03.171Z,80.50
2018-03-24T23:12:35.245Z,80.60
2018-03-24T23:15:03.833Z,78.90
2018-03-24T23:17:32.672Z,77.50
2018-03-24T23:20:00.887Z,77.00
2018-03-24T23:22:29.114Z,74.70
2018-03-24T23:24:57.773Z,76.70
2018-03-24T23:27:25.985Z,76.70
2018-03-24T23:29:54.191Z,77.00
2018-03-24T23:32:22.458Z,80.10
2018-03-24T23:34:50.669Z,81.30
2018-03-24T23:37:18.897Z,81.10
2018-03-24T23:39:47.074Z,80.00
2018-03-24T23:42:15.335Z,81.80
2018-03-24T23:44:43.501Z,80.70
2018-03-24T23:47:11.975Z,81.80
2018-03-24T23:49:40.905Z,80.00
2018-03-24T23:52:09.089Z,80.00
2018-03-24T23:54:37.275Z,77.70
2018-03-24T23:57:05.450Z,80.20
2018-03-24T23:59:33.616Z,80.80
